createdAt,value
2023-05-10T00:00:54.728Z,799.00
2023-05-10T00:01:54.772Z,798.00
2023-05-10T00:02:54.850Z,796.00
2023-05-10T00:03:54.920Z,792.00
2023-05-10T00:04:54.962Z,793.00
2023-05-10T00:05:54.855Z,795.00
2023-05-10T00:06:53.874Z,798.00
2023-05-10T00:07:54.897Z,798.00
2023-05-10T00:08:54.923Z,797.00
2023-05-10T00:09:53.955Z,795.00
2023-05-10T00:10:54.972Z,793.00
2023-05-10T00:11:53.986Z,795.00
2023-05-10T00:12:55.043Z,795.00
2023-05-10T00:13:54.056Z,794.00
2023-05-10T00:14:54.073Z,795.00
2023-05-10T00:15:55.088Z,797.00
2023-05-10T00:16:54.186Z,796.00
2023-05-10T00:17:55.160Z,796.00
2023-05-10T00:18:55.162Z,795.00
2023-05-10T00:19:54.191Z,791.00
2023-05-10T00:20:55.245Z,792.00
2023-05-10T00:21:55.314Z,790.00
2023-05-10T00:22:54.269Z,792.00
2023-05-10T00:23:55.303Z,793.00
2023-05-10T00:24:55.298Z,792.00
2023-05-10T00:25:55.334Z,790.00
2023-05-10T00:26:55.361Z,788.00
2023-05-10T00:27:55.383Z,788.00
2023-05-10T00:28:55.422Z,788.00
2023-05-10T00:29:55.452Z,786.00
2023-05-10T00:30:55.464Z,785.00
2023-05-10T00:31:55.534Z,787.00
2023-05-10T00:32:54.527Z,787.00
2023-05-10T00:33:55.574Z,788.00
2023-05-10T00:34:54.570Z,787.00
2023-05-10T00:35:55.631Z,788.00
2023-05-10T00:36:54.652Z,788.00
2023-05-10T00:37:54.651Z,784.00
2023-05-10T00:38:54.699Z,782.00
2023-05-10T00:39:55.744Z,780.00
2023-05-10T00:40:55.764Z,780.00
2023-05-10T00:41:55.774Z,781.00
2023-05-10T00:42:55.813Z,782.00
2023-05-10T00:43:55.853Z,781.00
2023-05-10T00:44:55.882Z,780.00
2023-05-10T00:45:55.961Z,781.00
2023-05-10T00:46:55.940Z,782.00
2023-05-10T00:47:56.048Z,781.00
2023-05-10T00:48:54.995Z,780.00
2023-05-10T00:49:56.024Z,779.00
2023-05-10T00:50:56.057Z,778.00
2023-05-10T00:51:56.119Z,779.00
2023-05-10T00:52:55.132Z,781.00
2023-05-10T00:53:56.158Z,781.00
2023-05-10T00:54:56.195Z,782.00
2023-05-10T00:55:56.235Z,782.00
2023-05-10T00:56:55.261Z,778.00
2023-05-10T00:57:55.302Z,777.00
2023-05-10T00:58:56.341Z,779.00
2023-05-10T00:59:56.380Z,778.00
2023-05-10T01:00:56.486Z,780.00
2023-05-10T01:01:55.440Z,780.00
2023-05-10T01:02:55.567Z,782.00
2023-05-10T01:03:56.527Z,784.00
2023-05-10T01:04:55.567Z,782.00
2023-05-10T01:05:55.561Z,782.00
2023-05-10T01:06:55.627Z,783.00
2023-05-10T01:07:55.680Z,783.00
2023-05-10T01:08:55.684Z,783.00
2023-05-10T01:09:55.720Z,782.00
2023-05-10T01:10:56.783Z,783.00
2023-05-10T01:11:56.836Z,780.00
2023-05-10T01:12:56.901Z,778.00
2023-05-10T01:13:57.089Z,776.00
2023-05-10T01:14:56.886Z,777.00
2023-05-10T01:15:55.943Z,778.00
2023-05-10T01:16:56.974Z,778.00
2023-05-10T01:17:57.053Z,780.00
2023-05-10T01:18:56.033Z,779.00
2023-05-10T01:19:57.101Z,779.00
2023-05-10T01:20:56.122Z,779.00
2023-05-10T01:21:56.175Z,780.00
2023-05-10T01:22:57.208Z,779.00
2023-05-10T01:23:56.274Z,776.00
2023-05-10T01:24:57.315Z,775.00
2023-05-10T01:25:56.336Z,775.00
2023-05-10T01:26:57.366Z,774.00
2023-05-10T01:27:57.406Z,774.00
2023-05-10T01:28:56.461Z,775.00
2023-05-10T01:30:21.953Z,776.00
2023-05-10T01:30:57.486Z,776.00
2023-05-10T01:31:57.500Z,775.00
2023-05-10T01:32:57.540Z,776.00
2023-05-10T01:33:57.464Z,774.00
2023-05-10T01:34:57.750Z,774.00
2023-05-10T01:35:57.465Z,776.00
2023-05-10T01:36:56.444Z,777.00
2023-05-10T01:37:57.435Z,777.00
2023-05-10T01:38:57.441Z,776.00
2023-05-10T01:39:57.525Z,775.00
2023-05-10T01:40:57.431Z,774.00
2023-05-10T01:41:57.433Z,773.00
2023-05-10T01:42:57.412Z,774.00
2023-05-10T01:43:56.404Z,774.00
2023-05-10T01:44:57.401Z,776.00
2023-05-10T01:45:57.381Z,777.00
2023-05-10T01:46:57.511Z,777.00
2023-05-10T01:47:56.416Z,779.00
2023-05-10T01:48:57.362Z,779.00
2023-05-10T01:49:57.353Z,778.00
2023-05-10T01:50:57.337Z,775.00
2023-05-10T01:51:57.352Z,777.00
2023-05-10T01:52:57.335Z,778.00
2023-05-10T01:53:57.327Z,779.00
2023-05-10T01:54:57.327Z,778.00
2023-05-10T01:55:56.349Z,776.00
2023-05-10T01:56:57.294Z,774.00
2023-05-10T01:57:56.283Z,774.00
2023-05-10T01:58:57.292Z,774.00
2023-05-10T01:59:56.352Z,773.00
2023-05-10T02:00:57.462Z,772.00
2023-05-10T02:01:56.425Z,769.00
2023-05-10T02:02:57.567Z,773.00
2023-05-10T02:03:57.578Z,771.00
2023-05-10T02:04:57.565Z,771.00
2023-05-10T02:05:56.577Z,768.00
2023-05-10T02:06:57.645Z,769.00
2023-05-10T02:07:56.686Z,769.00
2023-05-10T02:08:57.731Z,771.00
2023-05-10T02:09:57.790Z,773.00
2023-05-10T02:10:56.795Z,773.00
2023-05-10T02:11:57.851Z,775.00
2023-05-10T02:12:57.922Z,775.00
2023-05-10T02:13:57.915Z,774.00
2023-05-10T02:14:57.967Z,775.00
2023-05-10T02:15:58.032Z,776.00
2023-05-10T02:16:58.117Z,777.00
2023-05-10T02:17:58.125Z,777.00
2023-05-10T02:18:58.097Z,776.00
2023-05-10T02:19:57.143Z,774.00
2023-05-10T02:20:58.178Z,774.00
2023-05-10T02:21:58.191Z,777.00
2023-05-10T02:22:58.235Z,776.00
2023-05-10T02:23:57.272Z,777.00
2023-05-10T02:24:58.308Z,779.00
2023-05-10T02:25:58.347Z,778.00
2023-05-10T02:26:57.384Z,776.00
2023-05-10T02:27:58.441Z,773.00
2023-05-10T02:28:58.443Z,774.00
2023-05-10T02:29:58.498Z,773.00
2023-05-10T02:30:58.549Z,775.00
2023-05-10T02:31:58.588Z,774.00
2023-05-10T02:32:58.746Z,772.00
2023-05-10T02:33:58.684Z,770.00
2023-05-10T02:34:58.686Z,769.00
2023-05-10T02:35:58.729Z,773.00
2023-05-10T02:36:58.781Z,775.00
2023-05-10T02:37:58.814Z,777.00
2023-05-10T02:38:58.884Z,777.00
2023-05-10T02:39:57.911Z,777.00
2023-05-10T02:40:58.956Z,775.00
2023-05-10T02:41:57.996Z,776.00
2023-05-10T02:42:58.065Z,777.00
2023-05-10T02:43:59.108Z,777.00
2023-05-10T02:44:58.145Z,778.00
2023-05-10T02:45:59.245Z,776.00
2023-05-10T02:46:58.269Z,773.00
2023-05-10T02:47:59.359Z,772.00
2023-05-10T02:48:59.353Z,770.00
2023-05-10T02:49:58.386Z,771.00
2023-05-10T02:50:59.425Z,770.00
2023-05-10T02:51:59.518Z,772.00
2023-05-10T02:52:59.516Z,772.00
2023-05-10T02:53:59.563Z,772.00
2023-05-10T02:54:58.605Z,773.00
2023-05-10T02:55:59.661Z,774.00
2023-05-10T02:56:58.711Z,773.00
2023-05-10T02:57:58.741Z,772.00
2023-05-10T02:58:59.799Z,773.00
2023-05-10T02:59:59.853Z,773.00
2023-05-10T03:00:59.913Z,773.00
2023-05-10T03:01:58.912Z,774.00
2023-05-10T03:03:00.073Z,773.00
2023-05-10T03:03:59.009Z,773.00
2023-05-10T03:05:00.059Z,773.00
2023-05-10T03:05:59.099Z,774.00
2023-05-10T03:06:59.147Z,776.00
2023-05-10T03:07:59.204Z,774.00
2023-05-10T03:08:59.814Z,773.00
2023-05-10T03:10:00.296Z,770.00
2023-05-10T03:10:59.330Z,770.00
2023-05-10T03:12:00.369Z,769.00
2023-05-10T03:13:00.432Z,770.00
2023-05-10T03:14:00.461Z,769.00
2023-05-10T03:14:59.501Z,769.00
2023-05-10T03:16:00.583Z,767.00
2023-05-10T03:16:59.587Z,770.00
2023-05-10T03:18:00.674Z,769.00
2023-05-10T03:19:00.694Z,767.00
2023-05-10T03:19:59.723Z,766.00
2023-05-10T03:21:00.774Z,766.00
2023-05-10T03:22:00.849Z,767.00
2023-05-10T03:23:00.840Z,768.00
2023-05-10T03:24:00.904Z,767.00
2023-05-10T03:25:00.958Z,767.00
2023-05-10T03:26:01.047Z,766.00
2023-05-10T03:27:01.009Z,765.00
2023-05-10T03:28:01.052Z,765.00
2023-05-10T03:29:01.097Z,765.00
2023-05-10T03:30:01.144Z,764.00
2023-05-10T03:31:01.220Z,762.00
2023-05-10T03:32:01.248Z,760.00
2023-05-10T03:33:01.360Z,761.00
2023-05-10T03:34:00.296Z,762.00
2023-05-10T03:35:01.330Z,763.00
2023-05-10T03:36:01.414Z,764.00
2023-05-10T03:37:01.561Z,768.00
2023-05-10T03:38:01.473Z,769.00
2023-05-10T03:39:01.537Z,766.00
2023-05-10T03:40:01.567Z,763.00
2023-05-10T03:41:00.625Z,763.00
2023-05-10T03:42:01.702Z,762.00
2023-05-10T03:43:01.718Z,760.00
2023-05-10T03:44:00.737Z,761.00
2023-05-10T03:45:01.789Z,762.00
2023-05-10T03:46:01.863Z,761.00
2023-05-10T03:47:01.990Z,760.00
2023-05-10T03:48:00.997Z,759.00
2023-05-10T03:49:01.976Z,760.00
2023-05-10T03:50:02.046Z,757.00
2023-05-10T03:51:02.072Z,756.00
2023-05-10T03:52:02.151Z,757.00
2023-05-10T03:53:02.168Z,757.00
2023-05-10T03:54:02.220Z,757.00
2023-05-10T03:55:02.267Z,755.00
2023-05-10T03:56:01.302Z,756.00
2023-05-10T03:57:02.343Z,758.00
2023-05-10T03:58:01.388Z,757.00
2023-05-10T03:59:02.418Z,753.00
2023-05-10T04:00:02.489Z,755.00
2023-05-10T04:01:02.547Z,755.00
2023-05-10T04:02:02.640Z,754.00
2023-05-10T04:03:02.739Z,753.00
2023-05-10T04:04:01.723Z,753.00
2023-05-10T04:05:01.699Z,756.00
2023-05-10T04:06:02.840Z,755.00
2023-05-10T04:07:02.807Z,756.00
2023-05-10T04:08:02.857Z,757.00
2023-05-10T04:09:02.903Z,758.00
2023-05-10T04:10:01.955Z,758.00
2023-05-10T04:11:01.971Z,758.00
2023-05-10T04:12:03.026Z,756.00
2023-05-10T04:13:02.099Z,755.00
2023-05-10T04:14:03.118Z,757.00
2023-05-10T04:15:02.194Z,758.00
2023-05-10T04:16:03.259Z,757.00
2023-05-10T04:17:02.403Z,755.00
2023-05-10T04:18:03.339Z,754.00
2023-05-10T04:19:03.356Z,754.00
2023-05-10T04:20:03.390Z,754.00
2023-05-10T04:21:02.472Z,753.00
2023-05-10T04:22:02.504Z,752.00
2023-05-10T04:23:03.534Z,754.00
2023-05-10T04:24:03.566Z,753.00
2023-05-10T04:25:03.604Z,754.00
2023-05-10T04:26:03.641Z,753.00
2023-05-10T04:27:02.692Z,752.00
2023-05-10T04:28:02.728Z,752.00
2023-05-10T04:29:02.773Z,753.00
2023-05-10T04:30:03.841Z,754.00
2023-05-10T04:31:03.898Z,757.00
2023-05-10T04:32:03.895Z,757.00
2023-05-10T04:33:03.976Z,757.00
2023-05-10T04:34:03.989Z,758.00
2023-05-10T04:35:04.049Z,758.00
2023-05-10T04:36:04.111Z,759.00
2023-05-10T04:37:03.125Z,757.00
2023-05-10T04:38:03.193Z,755.00
2023-05-10T04:39:03.203Z,757.00
2023-05-10T04:40:03.262Z,757.00
2023-05-10T04:41:04.330Z,757.00
2023-05-10T04:42:04.347Z,753.00
2023-05-10T04:43:03.399Z,753.00
2023-05-10T04:44:04.463Z,753.00
2023-05-10T04:45:04.510Z,752.00
2023-05-10T04:46:03.620Z,752.00
2023-05-10T04:47:04.622Z,753.00
2023-05-10T04:48:03.702Z,753.00
2023-05-10T04:49:04.678Z,752.00
2023-05-10T04:50:04.742Z,752.00
2023-05-10T04:51:04.892Z,755.00
2023-05-10T04:52:04.801Z,756.00
2023-05-10T04:53:04.870Z,754.00
2023-05-10T04:54:06.835Z,754.00
2023-05-10T04:55:04.910Z,757.00
2023-05-10T04:56:04.897Z,757.00
2023-05-10T04:57:04.911Z,758.00
2023-05-10T04:58:04.889Z,760.00
2023-05-10T04:59:04.879Z,761.00
2023-05-10T05:00:03.872Z,757.00
2023-05-10T05:01:04.861Z,756.00
2023-05-10T05:02:04.863Z,754.00
2023-05-10T05:03:03.940Z,751.00
2023-05-10T05:04:04.818Z,752.00
2023-05-10T05:05:04.841Z,750.00
2023-05-10T05:06:04.834Z,751.00
2023-05-10T05:07:03.853Z,752.00
2023-05-10T05:08:04.859Z,753.00
2023-05-10T05:09:04.864Z,753.00
2023-05-10T05:10:04.834Z,751.00
2023-05-10T05:11:03.819Z,748.00
2023-05-10T05:12:04.789Z,749.00
2023-05-10T05:13:04.828Z,747.00
2023-05-10T05:14:03.759Z,746.00
2023-05-10T05:15:04.774Z,749.00
2023-05-10T05:16:04.836Z,749.00
2023-05-10T05:17:04.775Z,750.00
2023-05-10T05:18:04.829Z,748.00
2023-05-10T05:19:04.774Z,748.00
2023-05-10T05:20:04.721Z,749.00
2023-05-10T05:21:04.752Z,750.00
2023-05-10T05:22:04.743Z,753.00
2023-05-10T05:23:03.747Z,749.00
2023-05-10T05:24:04.738Z,749.00
2023-05-10T05:25:04.743Z,748.00
2023-05-10T05:26:03.794Z,748.00
2023-05-10T05:27:03.825Z,747.00
2023-05-10T05:28:05.068Z,748.00
2023-05-10T05:29:04.902Z,744.00
2023-05-10T05:30:04.976Z,742.00
2023-05-10T05:31:04.992Z,739.00
2023-05-10T05:32:04.516Z,739.00
2023-05-10T05:33:05.203Z,739.00
2023-05-10T05:34:05.170Z,737.00
2023-05-10T05:35:05.271Z,740.00
2023-05-10T05:36:04.385Z,745.00
2023-05-10T05:37:05.343Z,748.00
2023-05-10T05:38:05.343Z,754.00
2023-05-10T05:39:04.538Z,762.00
2023-05-10T05:40:04.449Z,764.00
2023-05-10T05:41:04.469Z,769.00
2023-05-10T05:42:05.555Z,769.00
2023-05-10T05:43:05.596Z,782.00
2023-05-10T05:44:05.663Z,801.00
2023-05-10T05:45:05.685Z,807.00
2023-05-10T05:46:05.798Z,823.00
2023-05-10T05:47:04.792Z,835.00
2023-05-10T05:48:04.888Z,943.00
2023-05-10T05:49:04.800Z,904.00
2023-05-10T05:50:05.884Z,897.00
2023-05-10T05:51:07.372Z,900.00
2023-05-10T05:52:05.211Z,902.00
2023-05-10T05:53:06.133Z,926.00
2023-05-10T05:54:05.155Z,958.00
2023-05-10T05:55:06.245Z,981.00
2023-05-10T05:56:06.272Z,986.00
2023-05-10T05:57:06.317Z,997.00
2023-05-10T05:58:06.308Z,1105.00
2023-05-10T05:59:06.303Z,1130.00
2023-05-10T06:00:05.353Z,1131.00
2023-05-10T06:01:06.917Z,1144.00
2023-05-10T06:02:05.834Z,1250.00
2023-05-10T06:03:05.778Z,1244.00
2023-05-10T06:04:06.420Z,1237.00
2023-05-10T06:05:06.520Z,1254.00
2023-05-10T06:06:06.426Z,1305.00
2023-05-10T06:07:06.535Z,1329.00
2023-05-10T06:08:06.546Z,1343.00
2023-05-10T06:09:07.611Z,1348.00
2023-05-10T06:10:06.598Z,1419.00
2023-05-10T06:11:05.747Z,1402.00
2023-05-10T06:12:05.844Z,1402.00
2023-05-10T06:13:05.831Z,1445.00
2023-05-10T06:14:06.843Z,1461.00
2023-05-10T06:15:06.916Z,1456.00
2023-05-10T06:16:07.188Z,1466.00
2023-05-10T06:17:06.060Z,1509.00
2023-05-10T06:18:07.236Z,1557.00
2023-05-10T06:19:06.070Z,1571.00
2023-05-10T06:20:07.145Z,1586.00
2023-05-10T06:21:07.163Z,1631.00
2023-05-10T06:22:07.195Z,1640.00
2023-05-10T06:23:07.216Z,1649.00
2023-05-10T06:24:06.208Z,1707.00
2023-05-10T06:25:07.264Z,1719.00
2023-05-10T06:26:13.306Z,1734.00
2023-05-10T06:27:07.267Z,1728.00
2023-05-10T06:28:07.258Z,1747.00
2023-05-10T06:29:06.244Z,1807.00
2023-05-10T06:30:12.951Z,1792.00
2023-05-10T06:31:07.258Z,1857.00
2023-05-10T06:32:07.245Z,1861.00
2023-05-10T06:33:07.264Z,1888.00
2023-05-10T06:34:06.214Z,1903.00
2023-05-10T06:35:07.210Z,1937.00
2023-05-10T06:36:06.221Z,1981.00
2023-05-10T06:37:07.222Z,2004.00
2023-05-10T06:38:07.215Z,2007.00
2023-05-10T06:39:07.187Z,2006.00
2023-05-10T06:40:07.178Z,2057.00
2023-05-10T06:41:07.183Z,2067.00
2023-05-10T06:42:07.209Z,2090.00
2023-05-10T06:43:07.164Z,2105.00
2023-05-10T06:44:07.152Z,2123.00
2023-05-10T06:45:07.151Z,2125.00
2023-05-10T06:46:07.178Z,2225.00
2023-05-10T06:47:06.158Z,2216.00
2023-05-10T06:48:06.210Z,2243.00
2023-05-10T06:49:07.132Z,2268.00
2023-05-10T06:50:07.202Z,2287.00
2023-05-10T06:51:07.114Z,2329.00
2023-05-10T06:52:07.360Z,2313.00
2023-05-10T06:53:06.097Z,2292.00
2023-05-10T06:54:06.088Z,2336.00
2023-05-10T06:55:06.138Z,2391.00
2023-05-10T06:56:07.076Z,2393.00
2023-05-10T06:57:16.136Z,2392.00
2023-05-10T06:58:07.073Z,2375.00
2023-05-10T06:59:07.089Z,2370.00
2023-05-10T07:00:06.198Z,2369.00
2023-05-10T07:01:06.168Z,2366.00
2023-05-10T07:02:07.077Z,2367.00
2023-05-10T07:03:07.055Z,2365.00
2023-05-10T07:04:07.064Z,2354.00
2023-05-10T07:05:07.007Z,2346.00
2023-05-10T07:06:07.182Z,2335.00
2023-05-10T07:07:05.995Z,2331.00
2023-05-10T07:08:06.981Z,2312.00
2023-05-10T07:09:06.974Z,2296.00
2023-05-10T07:10:05.985Z,2288.00
2023-05-10T07:11:05.969Z,2278.00
2023-05-10T07:12:07.264Z,2278.00
2023-05-10T07:13:07.021Z,2278.00
2023-05-10T07:14:06.017Z,2283.00
2023-05-10T07:15:06.951Z,2291.00
2023-05-10T07:16:05.982Z,2294.00
2023-05-10T07:17:05.949Z,2297.00
2023-05-10T07:18:07.132Z,2308.00
2023-05-10T07:19:05.906Z,2319.00
2023-05-10T07:20:06.918Z,2327.00
2023-05-10T07:21:06.011Z,2330.00
2023-05-10T07:22:06.039Z,2329.00
2023-05-10T07:23:07.081Z,2327.00
2023-05-10T07:24:07.124Z,2325.00
2023-05-10T07:25:06.192Z,2325.00
2023-05-10T07:26:07.240Z,2325.00
2023-05-10T07:27:06.311Z,2322.00
2023-05-10T07:28:06.384Z,2315.00
2023-05-10T07:29:06.612Z,2311.00
2023-05-10T07:30:07.499Z,2306.00
2023-05-10T07:31:07.561Z,2303.00
2023-05-10T07:32:07.672Z,2302.00
2023-05-10T07:33:07.699Z,2306.00
2023-05-10T07:34:07.745Z,2302.00
2023-05-10T07:35:07.864Z,2303.00
2023-05-10T07:36:06.859Z,2302.00
2023-05-10T07:37:06.925Z,2302.00
2023-05-10T07:38:07.987Z,2305.00
2023-05-10T07:39:08.029Z,2307.00
2023-05-10T07:40:08.124Z,2300.00
2023-05-10T07:41:07.171Z,2300.00
2023-05-10T07:42:07.215Z,2297.00
2023-05-10T07:43:08.278Z,2294.00
2023-05-10T07:44:07.342Z,2291.00
2023-05-10T07:45:08.431Z,2285.00
2023-05-10T07:46:08.545Z,2284.00
2023-05-10T07:47:08.894Z,2280.00
2023-05-10T07:48:07.629Z,2248.00
2023-05-10T07:49:08.647Z,2239.00
2023-05-10T07:50:07.708Z,2157.00
2023-05-10T07:51:07.766Z,2290.00
2023-05-10T07:52:08.913Z,2282.00
2023-05-10T07:53:07.845Z,2284.00
2023-05-10T07:54:07.913Z,2276.00
2023-05-10T07:55:07.990Z,2230.00
2023-05-10T07:56:09.100Z,2188.00
2023-05-10T07:57:08.104Z,2181.00
2023-05-10T07:58:08.199Z,2243.00
2023-05-10T07:59:11.345Z,2277.00
2023-05-10T08:00:08.225Z,2292.00
2023-05-10T08:01:08.214Z,2306.00
2023-05-10T08:02:08.273Z,2308.00
2023-05-10T08:03:09.332Z,2309.00
2023-05-10T08:04:09.270Z,2301.00
2023-05-10T08:05:08.170Z,2290.00
2023-05-10T08:06:09.185Z,2275.00
2023-05-10T08:07:08.172Z,2263.00
2023-05-10T08:08:09.209Z,2256.00
2023-05-10T08:09:09.179Z,2250.00
2023-05-10T08:10:08.142Z,2241.00
2023-05-10T08:11:09.144Z,2219.00
2023-05-10T08:12:09.147Z,2168.00
2023-05-10T08:13:08.127Z,2147.00
2023-05-10T08:14:08.170Z,2138.00
2023-05-10T08:15:09.105Z,2147.00
2023-05-10T08:16:09.123Z,2152.00
2023-05-10T08:17:08.210Z,2150.00
2023-05-10T08:18:08.204Z,2151.00
2023-05-10T08:19:08.257Z,2151.00
2023-05-10T08:20:09.261Z,2150.00
2023-05-10T08:21:08.270Z,2151.00
2023-05-10T08:22:09.325Z,2148.00
2023-05-10T08:23:09.357Z,2142.00
2023-05-10T08:24:08.417Z,2138.00
2023-05-10T08:25:09.490Z,2136.00
2023-05-10T08:26:09.474Z,2144.00
2023-05-10T08:27:09.561Z,2151.00
2023-05-10T08:28:10.051Z,2155.00
2023-05-10T08:29:08.556Z,2162.00
2023-05-10T08:30:09.564Z,2164.00
2023-05-10T08:31:09.585Z,2162.00
2023-05-10T08:32:09.542Z,2164.00
2023-05-10T08:33:09.596Z,2163.00
2023-05-10T08:34:08.568Z,2157.00
2023-05-10T08:35:08.523Z,2155.00
2023-05-10T08:36:08.510Z,2155.00
2023-05-10T08:37:09.496Z,2158.00
2023-05-10T08:38:09.514Z,2160.00
2023-05-10T08:39:22.975Z,2163.00
2023-05-10T08:40:09.521Z,2162.00
2023-05-10T08:41:08.540Z,2162.00
2023-05-10T08:42:09.509Z,2164.00
2023-05-10T08:43:08.894Z,2167.00
2023-05-10T08:44:08.462Z,2172.00
2023-05-10T08:45:09.466Z,1311.00
2023-05-10T08:46:09.524Z,889.00
2023-05-10T08:47:08.665Z,726.00
2023-05-10T08:48:09.550Z,719.00
2023-05-10T08:49:08.437Z,594.00
2023-05-10T08:50:09.486Z,580.00
2023-05-10T08:51:08.421Z,555.00
2023-05-10T08:52:09.409Z,501.00
2023-05-10T08:53:09.933Z,486.00
2023-05-10T08:54:09.389Z,451.00
2023-05-10T08:55:09.394Z,456.00
2023-05-10T08:56:09.388Z,463.00
2023-05-10T08:57:08.367Z,472.00
2023-05-10T08:58:09.412Z,471.00
2023-05-10T08:59:08.360Z,471.00
2023-05-10T09:00:09.363Z,473.00
2023-05-10T09:01:09.541Z,468.00
2023-05-10T09:02:09.349Z,457.00
2023-05-10T09:03:08.456Z,443.00
2023-05-10T09:04:09.469Z,429.00
2023-05-10T09:05:09.361Z,426.00
2023-05-10T09:06:08.343Z,419.00
2023-05-10T09:07:09.312Z,418.00
2023-05-10T09:08:08.345Z,417.00
2023-05-10T09:09:09.323Z,420.00
2023-05-10T09:10:08.293Z,420.00
2023-05-10T09:11:08.305Z,419.00
2023-05-10T09:12:08.291Z,423.00
2023-05-10T09:13:09.289Z,427.00
2023-05-10T09:14:09.277Z,436.00
2023-05-10T09:15:09.312Z,447.00
2023-05-10T09:16:20.575Z,456.00
2023-05-10T09:17:09.386Z,468.00
2023-05-10T09:18:09.561Z,478.00
2023-05-10T09:19:09.466Z,485.00
2023-05-10T09:20:09.297Z,519.00
2023-05-10T09:21:08.289Z,526.00
2023-05-10T09:22:09.303Z,530.00
2023-05-10T09:23:09.269Z,539.00
2023-05-10T09:24:09.278Z,546.00
2023-05-10T09:25:08.264Z,562.00
2023-05-10T09:26:08.268Z,578.00
2023-05-10T09:27:09.247Z,582.00
2023-05-10T09:28:09.263Z,580.00
2023-05-10T09:29:09.253Z,580.00
2023-05-10T09:30:09.242Z,577.00
2023-05-10T09:31:09.267Z,575.00
2023-05-10T09:32:09.243Z,575.00
2023-05-10T09:33:08.207Z,576.00
2023-05-10T09:34:09.200Z,577.00
2023-05-10T09:35:09.223Z,580.00
2023-05-10T09:36:08.188Z,581.00
2023-05-10T09:37:08.221Z,583.00
2023-05-10T09:38:09.214Z,584.00
2023-05-10T09:39:09.179Z,581.00
2023-05-10T09:40:08.176Z,582.00
2023-05-10T09:41:09.173Z,581.00
2023-05-10T09:42:09.166Z,584.00
2023-05-10T09:43:09.141Z,726.00
2023-05-10T09:44:09.134Z,640.00
2023-05-10T09:45:08.146Z,532.00
2023-05-10T09:46:08.207Z,535.00
2023-05-10T09:47:09.122Z,553.00
2023-05-10T09:48:08.573Z,527.00
2023-05-10T09:49:09.105Z,519.00
2023-05-10T09:50:09.115Z,519.00
2023-05-10T09:51:08.079Z,504.00
2023-05-10T09:52:09.191Z,509.00
2023-05-10T09:53:09.421Z,678.00
2023-05-10T09:54:08.175Z,588.00
2023-05-10T09:55:09.202Z,585.00
2023-05-10T09:56:09.249Z,592.00
2023-05-10T09:57:09.298Z,591.00
2023-05-10T09:58:08.311Z,584.00
2023-05-10T09:59:09.308Z,576.00
2023-05-10T10:00:09.327Z,638.00
2023-05-10T10:01:08.387Z,560.00
2023-05-10T10:02:08.424Z,571.00
2023-05-10T10:03:08.589Z,651.00
2023-05-10T10:04:09.557Z,647.00
2023-05-10T10:05:09.629Z,515.00
2023-05-10T10:06:15.970Z,502.00
2023-05-10T10:07:09.641Z,505.00
2023-05-10T10:08:09.640Z,536.00
2023-05-10T10:09:08.696Z,509.00
2023-05-10T10:10:08.658Z,509.00
2023-05-10T10:11:09.598Z,665.00
2023-05-10T10:12:08.610Z,493.00
2023-05-10T10:13:09.648Z,499.00
2023-05-10T10:14:08.579Z,499.00
2023-05-10T10:15:09.584Z,662.00
2023-05-10T10:16:08.611Z,615.00
2023-05-10T10:17:09.586Z,581.00
2023-05-10T10:18:09.699Z,540.00
2023-05-10T10:19:09.566Z,508.00
2023-05-10T10:20:11.979Z,506.00
2023-05-10T10:21:09.576Z,513.00
2023-05-10T10:22:08.539Z,532.00
2023-05-10T10:23:08.523Z,508.00
2023-05-10T10:24:09.522Z,509.00
2023-05-10T10:25:08.513Z,502.00
2023-05-10T10:26:08.574Z,515.00
2023-05-10T10:27:08.505Z,505.00
2023-05-10T10:28:09.495Z,510.00
2023-05-10T10:29:08.496Z,527.00
2023-05-10T10:30:08.485Z,626.00
2023-05-10T10:31:09.526Z,606.00
2023-05-10T10:32:09.487Z,492.00
2023-05-10T10:33:16.838Z,499.00
2023-05-10T10:34:09.486Z,507.00
2023-05-10T10:35:08.469Z,574.00
2023-05-10T10:36:08.436Z,503.00
2023-05-10T10:37:09.438Z,546.00
2023-05-10T10:38:09.431Z,535.00
2023-05-10T10:39:08.419Z,565.00
2023-05-10T10:40:09.428Z,510.00
2023-05-10T10:41:09.407Z,507.00
2023-05-10T10:42:09.437Z,577.00
2023-05-10T10:43:08.411Z,599.00
2023-05-10T10:44:09.481Z,583.00
2023-05-10T10:45:09.389Z,592.00
2023-05-10T10:46:09.378Z,592.00
2023-05-10T10:47:09.604Z,641.00
2023-05-10T10:48:08.522Z,678.00
2023-05-10T10:49:09.384Z,633.00
2023-05-10T10:50:09.360Z,720.00
2023-05-10T10:51:10.846Z,831.00
2023-05-10T10:52:09.344Z,855.00
2023-05-10T10:53:08.379Z,859.00
2023-05-10T10:54:09.334Z,814.00
2023-05-10T10:55:08.331Z,842.00
2023-05-10T10:56:09.336Z,880.00
2023-05-10T10:57:09.320Z,889.00
2023-05-10T10:58:09.336Z,898.00
2023-05-10T10:59:09.319Z,903.00
2023-05-10T11:00:09.293Z,900.00
2023-05-10T11:01:09.320Z,907.00
2023-05-10T11:02:09.281Z,866.00
2023-05-10T11:03:08.468Z,885.00
2023-05-10T11:04:08.309Z,893.00
2023-05-10T11:05:09.258Z,910.00
2023-05-10T11:06:09.252Z,978.00
2023-05-10T11:07:08.232Z,980.00
2023-05-10T11:08:09.252Z,932.00
2023-05-10T11:09:09.235Z,973.00
2023-05-10T11:10:08.216Z,972.00
2023-05-10T11:11:09.238Z,1085.00
2023-05-10T11:12:08.226Z,954.00
2023-05-10T11:13:08.201Z,987.00
2023-05-10T11:14:09.271Z,1006.00
2023-05-10T11:15:08.260Z,1001.00
2023-05-10T11:16:09.350Z,1008.00
2023-05-10T11:17:09.413Z,1031.00
2023-05-10T11:18:09.425Z,1029.00
2023-05-10T11:19:09.541Z,1014.00
2023-05-10T11:20:09.405Z,871.00
2023-05-10T11:21:08.421Z,999.00
2023-05-10T11:22:09.471Z,994.00
2023-05-10T11:23:09.455Z,1008.00
2023-05-10T11:24:09.529Z,1004.00
2023-05-10T11:25:08.472Z,1020.00
2023-05-10T11:26:09.502Z,1028.00
2023-05-10T11:27:09.491Z,1036.00
2023-05-10T11:28:09.494Z,1022.00
2023-05-10T11:29:09.548Z,939.00
2023-05-10T11:30:09.562Z,999.00
2023-05-10T11:31:09.615Z,939.00
2023-05-10T11:32:09.572Z,1044.00
2023-05-10T11:33:08.614Z,876.00
2023-05-10T11:34:09.612Z,910.00
2023-05-10T11:35:09.606Z,1001.00
2023-05-10T11:36:08.626Z,1016.00
2023-05-10T11:37:08.641Z,999.00
2023-05-10T11:38:09.685Z,1058.00
2023-05-10T11:39:08.975Z,1065.00
2023-05-10T11:40:09.738Z,1075.00
2023-05-10T11:41:08.749Z,1114.00
2023-05-10T11:42:08.777Z,1111.00
2023-05-10T11:43:08.795Z,1006.00
2023-05-10T11:44:09.867Z,986.00
2023-05-10T11:45:09.888Z,908.00
2023-05-10T11:46:09.918Z,935.00
2023-05-10T11:47:09.916Z,842.00
2023-05-10T11:48:09.068Z,825.00
2023-05-10T11:49:10.019Z,811.00
2023-05-10T11:50:09.061Z,752.00
2023-05-10T11:51:10.100Z,759.00
2023-05-10T11:52:10.158Z,756.00
2023-05-10T11:53:10.188Z,744.00
2023-05-10T11:54:09.272Z,729.00
2023-05-10T11:55:10.315Z,756.00
2023-05-10T11:56:10.372Z,893.00
2023-05-10T11:57:10.415Z,894.00
2023-05-10T11:58:09.466Z,897.00
2023-05-10T11:59:10.520Z,885.00
2023-05-10T12:00:09.572Z,877.00
2023-05-10T12:01:10.627Z,873.00
2023-05-10T12:02:10.703Z,883.00
2023-05-10T12:03:09.893Z,961.00
2023-05-10T12:04:09.990Z,942.00
2023-05-10T12:05:10.075Z,935.00
2023-05-10T12:06:10.895Z,937.00
2023-05-10T12:07:10.957Z,941.00
2023-05-10T12:08:11.018Z,940.00
2023-05-10T12:09:10.086Z,940.00
2023-05-10T12:10:10.111Z,941.00
2023-05-10T12:11:11.180Z,943.00
2023-05-10T12:12:10.231Z,874.00
2023-05-10T12:13:11.294Z,778.00
2023-05-10T12:14:11.305Z,806.00
2023-05-10T12:15:11.289Z,677.00
2023-05-10T12:16:10.320Z,770.00
2023-05-10T12:17:10.290Z,697.00
2023-05-10T12:18:11.393Z,718.00
2023-05-10T12:19:10.410Z,712.00
2023-05-10T12:20:10.332Z,701.00
2023-05-10T12:21:11.365Z,665.00
2023-05-10T12:22:11.392Z,639.00
2023-05-10T12:23:10.398Z,616.00